createdAt,value
2023-02-19T00:00:50.606Z,5.70
2023-02-19T00:02:53.816Z,6.03
2023-02-19T00:04:57.023Z,6.00
2023-02-19T00:07:01.625Z,5.60
2023-02-19T00:09:05.703Z,5.43
2023-02-19T00:11:12.190Z,5.90
2023-02-19T00:13:15.472Z,5.60
2023-02-19T00:15:18.880Z,5.57
2023-02-19T00:17:22.081Z,6.00
2023-02-19T00:19:25.338Z,5.93
2023-02-19T00:21:29.429Z,5.90
2023-02-19T00:23:34.257Z,5.88
2023-02-19T00:25:38.066Z,5.50
2023-02-19T00:27:41.213Z,5.65
2023-02-19T00:29:44.489Z,6.25
2023-02-19T00:31:48.301Z,5.95
2023-02-19T00:33:53.603Z,6.03
2023-02-19T00:36:00.272Z,5.85
2023-02-19T00:38:04.098Z,6.22
2023-02-19T00:40:10.007Z,5.72
2023-02-19T00:42:13.267Z,5.88
2023-02-19T00:44:17.004Z,6.13
2023-02-19T00:46:22.067Z,6.57
2023-02-19T00:48:25.277Z,6.55
2023-02-19T00:50:28.492Z,6.85
2023-02-19T00:52:31.695Z,6.70
2023-02-19T00:54:35.137Z,6.97
2023-02-19T00:56:39.908Z,7.57
2023-02-19T00:58:43.155Z,7.35
2023-02-19T01:00:47.888Z,7.15
2023-02-19T01:02:51.168Z,6.97
2023-02-19T01:04:54.643Z,8.50
2023-02-19T01:06:57.853Z,7.95
2023-02-19T01:09:01.142Z,8.25
2023-02-19T01:11:05.482Z,8.30
2023-02-19T01:13:10.316Z,8.57
2023-02-19T01:15:13.543Z,8.43
2023-02-19T01:17:16.778Z,8.32
2023-02-19T01:19:20.013Z,8.02
2023-02-19T01:21:25.353Z,8.15
2023-02-19T01:23:28.576Z,8.52
2023-02-19T01:25:31.869Z,8.10
2023-02-19T01:27:35.108Z,8.68
2023-02-19T01:29:40.459Z,7.65
2023-02-19T01:31:43.816Z,6.38
2023-02-19T01:33:47.852Z,6.80
2023-02-19T01:35:51.069Z,6.75
2023-02-19T01:37:54.274Z,6.88
2023-02-19T01:39:57.685Z,6.82
2023-02-19T01:42:00.884Z,5.15
2023-02-19T01:44:07.971Z,5.70
2023-02-19T01:46:14.020Z,4.85
2023-02-19T01:48:21.781Z,5.53
2023-02-19T01:50:27.122Z,6.03
2023-02-19T01:52:33.364Z,5.30
2023-02-19T01:54:39.334Z,4.97
2023-02-19T01:56:44.805Z,4.88
2023-02-19T01:58:48.782Z,4.47
2023-02-19T02:00:52.706Z,4.03
2023-02-19T02:02:59.350Z,3.80
2023-02-19T02:05:03.612Z,4.10
2023-02-19T02:07:28.274Z,4.95
2023-02-19T02:09:49.567Z,3.70
2023-02-19T02:11:54.034Z,4.07
2023-02-19T02:13:58.078Z,4.32
2023-02-19T02:16:22.291Z,4.10
2023-02-19T02:18:39.121Z,4.30
2023-02-19T02:21:04.394Z,4.50
2023-02-19T02:23:16.809Z,4.72
2023-02-19T02:25:41.309Z,5.07
2023-02-19T02:27:54.628Z,5.57
2023-02-19T02:30:16.036Z,4.35
2023-02-19T02:32:22.576Z,4.10
2023-02-19T02:34:30.352Z,4.85
2023-02-19T02:36:38.236Z,4.57
2023-02-19T02:38:44.261Z,4.18
2023-02-19T02:40:48.922Z,3.65
2023-02-19T02:42:52.657Z,4.75
2023-02-19T02:45:13.837Z,4.32
2023-02-19T02:47:34.557Z,3.72
2023-02-19T02:49:57.988Z,3.53
2023-02-19T02:52:23.250Z,3.10
2023-02-19T02:54:47.919Z,3.40
2023-02-19T02:56:55.740Z,3.05
2023-02-19T02:59:02.068Z,3.42
2023-02-19T03:01:27.194Z,3.17
2023-02-19T03:03:33.557Z,3.38
2023-02-19T03:05:55.195Z,3.45
2023-02-19T03:08:06.577Z,3.08
2023-02-19T03:10:14.649Z,4.03
2023-02-19T03:12:39.834Z,3.40
2023-02-19T03:15:05.106Z,3.40
2023-02-19T03:17:32.072Z,3.35
2023-02-19T03:19:44.453Z,3.25
2023-02-19T03:21:53.467Z,3.00
2023-02-19T03:24:15.553Z,3.70
2023-02-19T03:26:22.069Z,3.33
2023-02-19T03:28:45.346Z,2.88
2023-02-19T03:30:53.602Z,2.80
2023-02-19T03:33:01.726Z,3.10
2023-02-19T03:35:11.028Z,2.90
2023-02-19T03:37:21.886Z,3.53
2023-02-19T03:39:25.506Z,3.10
2023-02-19T03:41:36.406Z,3.78
2023-02-19T03:43:43.809Z,3.05
2023-02-19T03:45:53.293Z,3.05
2023-02-19T03:48:04.983Z,3.33
2023-02-19T03:50:18.495Z,3.13
2023-02-19T03:52:28.627Z,2.78
2023-02-19T03:54:37.328Z,2.90
2023-02-19T03:56:48.083Z,2.97
2023-02-19T03:58:57.652Z,3.38
2023-02-19T04:01:07.013Z,3.50
2023-02-19T04:03:19.532Z,3.13
2023-02-19T04:05:27.616Z,3.40
2023-02-19T04:07:36.875Z,3.60
2023-02-19T04:09:44.202Z,3.70
2023-02-19T04:11:53.903Z,3.25
2023-02-19T04:14:02.760Z,3.45
2023-02-19T04:16:10.170Z,3.30
2023-02-19T04:18:18.974Z,4.03
2023-02-19T04:20:27.248Z,3.90
2023-02-19T04:22:31.573Z,3.72
2023-02-19T04:24:39.603Z,3.40
2023-02-19T04:26:44.204Z,3.60
2023-02-19T04:28:48.354Z,3.53
2023-02-19T04:30:51.658Z,3.80
2023-02-19T04:32:54.899Z,3.67
2023-02-19T04:34:58.113Z,3.70
2023-02-19T04:37:02.752Z,3.40
2023-02-19T04:39:05.948Z,3.45
2023-02-19T04:41:10.648Z,3.10
2023-02-19T04:43:14.238Z,3.20
2023-02-19T04:45:17.482Z,3.42
2023-02-19T04:47:20.675Z,3.38
2023-02-19T04:49:23.915Z,3.50
2023-02-19T04:51:27.076Z,3.38
2023-02-19T04:53:31.664Z,3.47
2023-02-19T04:55:39.122Z,3.40
2023-02-19T04:57:42.389Z,3.17
2023-02-19T04:59:45.577Z,2.97
2023-02-19T05:01:48.803Z,3.13
2023-02-19T05:03:52.044Z,3.75
2023-02-19T05:05:55.262Z,3.67
2023-02-19T05:07:58.637Z,3.45
2023-02-19T05:10:03.288Z,3.10
2023-02-19T05:12:06.999Z,3.60
2023-02-19T05:14:10.221Z,4.15
2023-02-19T05:16:16.158Z,3.80
2023-02-19T05:18:19.524Z,4.05
2023-02-19T05:20:23.489Z,3.67
2023-02-19T05:22:26.770Z,3.28
2023-02-19T05:24:29.988Z,4.10
2023-02-19T05:26:34.614Z,3.58
2023-02-19T05:28:37.807Z,3.70
2023-02-19T05:30:41.045Z,3.50
2023-02-19T05:32:44.208Z,4.07
2023-02-19T05:34:47.452Z,3.90
2023-02-19T05:36:50.800Z,3.55
2023-02-19T05:38:55.270Z,3.63
2023-02-19T05:41:08.517Z,3.60
2023-02-19T05:43:14.414Z,3.78
2023-02-19T05:45:17.841Z,3.60
2023-02-19T05:47:21.158Z,3.50
2023-02-19T05:49:24.364Z,3.63
2023-02-19T05:51:28.464Z,3.85
2023-02-19T05:53:32.142Z,4.00
2023-02-19T05:55:37.330Z,3.92
2023-02-19T05:57:43.614Z,4.47
2023-02-19T05:59:48.420Z,4.13
2023-02-19T06:01:53.253Z,4.05
2023-02-19T06:03:57.604Z,4.00
2023-02-19T06:06:01.031Z,4.15
2023-02-19T06:08:04.296Z,4.03
2023-02-19T06:10:08.602Z,3.85
2023-02-19T06:12:11.853Z,4.35
2023-02-19T06:14:15.239Z,4.32
2023-02-19T06:16:21.980Z,4.47
2023-02-19T06:18:25.277Z,4.13
2023-02-19T06:20:28.579Z,4.30
2023-02-19T06:22:31.788Z,4.43
2023-02-19T06:24:35.972Z,4.60
2023-02-19T06:26:39.778Z,4.07
2023-02-19T06:28:43.734Z,3.85
2023-02-19T06:30:47.104Z,4.22
2023-02-19T06:32:54.918Z,4.53
2023-02-19T06:34:58.141Z,4.47
2023-02-19T06:37:01.467Z,4.43
2023-02-19T06:39:06.551Z,4.22
2023-02-19T06:41:11.433Z,3.88
2023-02-19T06:43:14.865Z,4.25
2023-02-19T06:45:18.300Z,4.18
2023-02-19T06:47:23.177Z,4.68
2023-02-19T06:49:29.203Z,4.22
2023-02-19T06:51:33.025Z,4.38
2023-02-19T06:53:36.266Z,4.78
2023-02-19T06:55:40.377Z,4.82
2023-02-19T06:57:43.648Z,5.30
2023-02-19T06:59:46.899Z,5.40
2023-02-19T07:01:50.110Z,4.97
2023-02-19T07:03:54.024Z,4.95
2023-02-19T07:06:00.872Z,5.30
2023-02-19T07:08:04.047Z,5.65
2023-02-19T07:10:07.818Z,5.95
2023-02-19T07:12:11.467Z,6.55
2023-02-19T07:14:17.233Z,6.55
2023-02-19T07:16:20.464Z,6.57
2023-02-19T07:18:23.703Z,7.05
2023-02-19T07:20:26.937Z,7.15
2023-02-19T07:22:31.556Z,7.15
2023-02-19T07:24:34.764Z,7.55
2023-02-19T07:26:37.986Z,7.82
2023-02-19T07:28:42.123Z,7.20
2023-02-19T07:30:45.349Z,8.10
2023-02-19T07:32:48.521Z,7.93
2023-02-19T07:34:51.731Z,8.20
2023-02-19T07:36:55.004Z,8.23
2023-02-19T07:39:01.004Z,8.45
2023-02-19T07:41:05.512Z,7.93
2023-02-19T07:43:08.753Z,7.82
2023-02-19T07:45:11.984Z,8.32
2023-02-19T07:47:15.376Z,7.80
2023-02-19T07:49:18.844Z,7.70
2023-02-19T07:51:22.163Z,6.85
2023-02-19T07:53:26.601Z,6.90
2023-02-19T07:55:33.392Z,6.75
2023-02-19T07:57:36.626Z,6.45
2023-02-19T07:59:39.763Z,6.55
2023-02-19T08:02:00.402Z,6.10
2023-02-19T08:04:03.596Z,5.80
2023-02-19T08:06:07.473Z,5.78
2023-02-19T08:08:12.872Z,5.40
2023-02-19T08:10:33.422Z,5.88
2023-02-19T08:12:55.377Z,5.30
2023-02-19T08:14:58.882Z,5.80
2023-02-19T08:17:02.145Z,4.88
2023-02-19T08:19:05.432Z,5.75
2023-02-19T08:21:08.960Z,5.07
2023-02-19T08:23:13.571Z,4.97
2023-02-19T08:25:16.874Z,4.90
2023-02-19T08:27:20.089Z,5.13
2023-02-19T08:29:24.850Z,4.70
2023-02-19T08:31:28.509Z,4.43
2023-02-19T08:33:32.136Z,3.63
2023-02-19T08:35:36.595Z,4.13
2023-02-19T08:37:39.929Z,3.80
2023-02-19T08:39:43.096Z,3.60
2023-02-19T08:41:46.355Z,3.83
2023-02-19T08:43:49.541Z,3.30
2023-02-19T08:45:55.837Z,3.10
2023-02-19T08:47:59.312Z,3.20
2023-02-19T08:50:05.037Z,3.78
2023-02-19T08:52:08.264Z,3.15
2023-02-19T08:54:11.512Z,3.00
2023-02-19T08:56:17.409Z,2.40
2023-02-19T08:58:20.664Z,2.75
2023-02-19T09:00:24.375Z,3.10
2023-02-19T09:02:29.246Z,2.28
2023-02-19T09:04:32.731Z,2.45
2023-02-19T09:06:36.018Z,2.00
2023-02-19T09:08:39.291Z,2.15
2023-02-19T09:10:42.547Z,2.13
2023-02-19T09:12:45.748Z,2.17
2023-02-19T09:14:49.142Z,2.00
2023-02-19T09:16:52.529Z,1.48
2023-02-19T09:18:57.154Z,1.55
2023-02-19T09:21:01.666Z,1.63
2023-02-19T09:23:04.931Z,1.80
2023-02-19T09:25:08.394Z,1.83
2023-02-19T09:27:16.618Z,1.67
2023-02-19T09:29:20.202Z,1.20
2023-02-19T09:31:23.511Z,1.60
2023-02-19T09:33:26.806Z,1.38
2023-02-19T09:35:31.382Z,1.70
2023-02-19T09:37:34.599Z,1.73
2023-02-19T09:39:38.071Z,1.60
2023-02-19T09:41:46.571Z,1.63
2023-02-19T09:43:49.964Z,1.73
2023-02-19T09:46:02.781Z,1.63
2023-02-19T09:48:07.292Z,2.20
2023-02-19T09:50:11.541Z,2.10
2023-02-19T09:52:24.536Z,1.48
2023-02-19T09:54:30.174Z,1.60
2023-02-19T09:56:33.552Z,1.60
2023-02-19T09:58:42.633Z,1.23
2023-02-19T10:00:49.259Z,1.58
2023-02-19T10:02:54.886Z,1.67
2023-02-19T10:04:59.297Z,1.65
2023-02-19T10:07:03.796Z,1.35
2023-02-19T10:09:26.831Z,1.50
2023-02-19T10:11:30.400Z,1.63
2023-02-19T10:13:36.895Z,0.95
2023-02-19T10:15:47.103Z,1.25
2023-02-19T10:17:50.301Z,1.30
2023-02-19T10:19:54.197Z,1.40
2023-02-19T10:21:57.812Z,1.10
2023-02-19T10:24:03.785Z,1.55
2023-02-19T10:26:08.759Z,1.35
2023-02-19T10:28:16.870Z,1.10
2023-02-19T10:30:23.064Z,1.20
2023-02-19T10:32:29.565Z,1.02
2023-02-19T10:34:32.866Z,0.93
2023-02-19T10:36:40.704Z,0.90
2023-02-19T10:38:48.979Z,1.30
2023-02-19T10:40:58.987Z,0.93
2023-02-19T10:43:06.057Z,1.10
2023-02-19T10:45:20.054Z,1.17
2023-02-19T10:47:26.634Z,1.00
2023-02-19T10:49:34.211Z,0.95
2023-02-19T10:51:40.430Z,1.00
2023-02-19T10:53:47.219Z,0.82
2023-02-19T10:55:58.214Z,1.00
2023-02-19T10:58:24.124Z,1.10
2023-02-19T11:00:30.536Z,1.35
2023-02-19T11:02:34.143Z,1.02
2023-02-19T11:04:38.423Z,1.10
2023-02-19T11:06:42.215Z,1.23
2023-02-19T11:08:55.435Z,1.00
2023-02-19T11:10:59.106Z,1.15
2023-02-19T11:13:06.937Z,1.20
2023-02-19T11:15:22.186Z,0.85
2023-02-19T11:17:27.305Z,1.33
2023-02-19T11:19:36.586Z,1.05
2023-02-19T11:21:40.064Z,0.90
2023-02-19T11:23:47.289Z,0.90
2023-02-19T11:25:52.900Z,0.90
2023-02-19T11:27:58.250Z,1.45
2023-02-19T11:30:38.114Z,0.93
2023-02-19T11:32:41.456Z,1.40
2023-02-19T11:34:44.618Z,1.27
2023-02-19T11:36:48.720Z,1.08
2023-02-19T11:38:52.251Z,0.82
2023-02-19T11:41:05.879Z,1.20
2023-02-19T11:43:25.415Z,0.95
2023-02-19T11:45:38.433Z,1.00
2023-02-19T11:48:06.522Z,1.30
2023-02-19T11:50:21.601Z,0.90
2023-02-19T11:52:36.660Z,1.13
2023-02-19T11:54:52.053Z,1.38
2023-02-19T11:57:06.679Z,0.93
2023-02-19T11:59:18.704Z,1.35
2023-02-19T12:01:37.518Z,1.23
2023-02-19T12:04:05.183Z,1.00
2023-02-19T12:06:20.679Z,1.10
2023-02-19T12:08:49.788Z,1.20
2023-02-19T12:11:10.267Z,1.00
2023-02-19T12:13:23.044Z,1.00
2023-02-19T12:18:31.797Z,1.17
2023-02-19T12:20:44.894Z,1.08
2023-02-19T12:22:56.986Z,1.20
2023-02-19T12:25:34.033Z,1.20
2023-02-19T12:27:50.348Z,1.23
2023-02-19T12:30:19.397Z,1.20
2023-02-19T12:32:44.176Z,0.95
2023-02-19T12:35:05.936Z,1.20
2023-02-19T12:37:22.337Z,1.15
2023-02-19T12:39:36.340Z,1.77
2023-02-19T12:41:45.728Z,1.15
2023-02-19T12:43:55.646Z,1.15
2023-02-19T12:46:04.183Z,1.00
2023-02-19T12:48:15.114Z,1.02
2023-02-19T12:50:22.766Z,1.17
2023-02-19T12:52:28.323Z,1.13
2023-02-19T12:54:38.180Z,0.90
2023-02-19T12:56:46.271Z,1.17
2023-02-19T12:58:53.281Z,1.05
2023-02-19T13:00:59.990Z,1.20
2023-02-19T13:03:10.767Z,0.80
2023-02-19T13:05:25.220Z,1.23
2023-02-19T13:07:34.583Z,1.13
2023-02-19T13:09:42.333Z,1.20
2023-02-19T13:11:50.393Z,1.05
2023-02-19T13:13:58.914Z,2.03
2023-02-19T13:16:09.820Z,1.00
2023-02-19T13:18:18.678Z,1.10
2023-02-19T13:20:28.291Z,1.10
2023-02-19T13:22:55.969Z,0.95
2023-02-19T13:24:59.727Z,1.20
2023-02-19T13:27:24.350Z,0.80
2023-02-19T13:29:39.246Z,1.23
2023-02-19T13:32:20.684Z,1.25
2023-02-19T13:34:37.279Z,1.00
2023-02-19T13:36:42.857Z,0.90
2023-02-19T13:38:50.020Z,0.90
2023-02-19T13:40:57.872Z,1.25
2023-02-19T13:43:03.347Z,1.48
2023-02-19T13:45:07.858Z,0.90
2023-02-19T13:47:44.780Z,0.80
2023-02-19T13:49:50.623Z,0.82
2023-02-19T13:51:55.900Z,1.23
2023-02-19T13:54:00.669Z,0.95
2023-02-19T13:56:03.906Z,0.98
2023-02-19T13:58:35.895Z,1.65
2023-02-19T14:00:50.037Z,1.25
2023-02-19T14:03:28.652Z,0.82
2023-02-19T14:05:59.896Z,0.93
2023-02-19T14:08:04.523Z,1.45
2023-02-19T14:10:13.833Z,0.73
2023-02-19T14:12:21.230Z,0.98
2023-02-19T14:14:29.581Z,1.05
2023-02-19T14:16:54.804Z,1.00
2023-02-19T14:18:57.985Z,1.13
2023-02-19T14:21:08.634Z,0.82
2023-02-19T14:23:24.850Z,1.30
2023-02-19T14:25:38.218Z,1.20
2023-02-19T14:27:41.610Z,0.90
2023-02-19T14:29:45.696Z,0.90
2023-02-19T14:31:49.018Z,0.90
2023-02-19T14:33:54.500Z,1.13
2023-02-19T14:36:03.924Z,1.05
2023-02-19T14:38:07.985Z,1.10
2023-02-19T14:40:21.566Z,1.23
2023-02-19T14:42:32.474Z,0.90
2023-02-19T14:44:45.725Z,0.90
2023-02-19T14:46:57.907Z,1.30
2023-02-19T14:49:08.473Z,1.25
2023-02-19T14:51:18.101Z,0.90
2023-02-19T14:53:24.475Z,1.00
2023-02-19T14:55:33.943Z,1.13
2023-02-19T14:57:41.221Z,1.20
2023-02-19T14:59:55.084Z,1.10
2023-02-19T15:02:01.059Z,1.10
2023-02-19T15:04:04.909Z,1.35
2023-02-19T15:06:13.854Z,1.02
2023-02-19T15:08:23.857Z,1.10
2023-02-19T15:10:31.965Z,0.95
2023-02-19T15:12:39.565Z,1.20
2023-02-19T15:14:42.735Z,1.35
2023-02-19T15:16:46.083Z,1.20
2023-02-19T15:18:51.885Z,0.80
2023-02-19T15:21:01.757Z,1.20
2023-02-19T15:23:08.533Z,1.48
2023-02-19T15:25:17.278Z,1.27
2023-02-19T15:27:25.075Z,1.02
2023-02-19T15:29:30.112Z,0.80
2023-02-19T15:31:33.419Z,1.30
2023-02-19T15:33:36.790Z,1.10
2023-02-19T15:35:40.061Z,1.15
2023-02-19T15:37:43.296Z,1.08
2023-02-19T15:39:48.653Z,1.27
2023-02-19T15:42:00.612Z,0.93
2023-02-19T15:44:22.300Z,1.00
2023-02-19T15:46:28.651Z,1.25
2023-02-19T15:48:39.623Z,1.30
2023-02-19T15:50:46.652Z,1.63
2023-02-19T15:52:59.345Z,1.48
2023-02-19T15:55:10.394Z,1.27
2023-02-19T15:57:21.376Z,1.38
2023-02-19T15:59:31.851Z,1.48
2023-02-19T16:01:37.976Z,1.30
2023-02-19T16:03:41.605Z,1.33
2023-02-19T16:05:44.976Z,1.23
2023-02-19T16:07:48.229Z,1.40
2023-02-19T16:10:05.658Z,1.48
2023-02-19T16:12:21.800Z,1.20
2023-02-19T16:14:31.807Z,1.80
2023-02-19T16:16:39.697Z,2.15
2023-02-19T16:18:46.512Z,1.92
2023-02-19T16:20:49.757Z,3.90
2023-02-19T16:22:57.804Z,3.97
2023-02-19T16:25:04.011Z,3.00
2023-02-19T16:27:07.877Z,2.83
2023-02-19T16:29:20.653Z,2.95
2023-02-19T16:31:25.584Z,2.53
2023-02-19T16:33:37.869Z,2.60
2023-02-19T16:35:41.385Z,2.40
2023-02-19T16:37:58.618Z,2.67
2023-02-19T16:40:46.504Z,2.80
2023-02-19T16:43:29.216Z,2.50
2023-02-19T16:45:32.481Z,2.20
2023-02-19T16:47:41.627Z,2.03
2023-02-19T16:49:46.253Z,2.80
2023-02-19T16:51:50.457Z,2.55
2023-02-19T16:53:56.605Z,3.22
2023-02-19T16:56:01.842Z,2.42
2023-02-19T16:58:06.158Z,2.20
2023-02-19T17:00:17.366Z,2.42
2023-02-19T17:02:26.154Z,2.65
2023-02-19T17:04:31.744Z,2.17
2023-02-19T17:06:37.857Z,1.88
2023-02-19T17:08:44.178Z,1.90
2023-02-19T17:10:49.027Z,1.98
2023-02-19T17:12:53.687Z,1.83
2023-02-19T17:14:57.725Z,1.80
2023-02-19T17:17:02.329Z,2.13
2023-02-19T17:19:10.540Z,2.17
2023-02-19T17:21:19.319Z,2.30
2023-02-19T17:23:24.467Z,2.47
2023-02-19T17:25:29.215Z,2.53
2023-02-19T17:27:32.519Z,2.67
2023-02-19T17:29:37.196Z,2.70
2023-02-19T17:31:40.666Z,2.97
2023-02-19T17:33:44.766Z,2.53
2023-02-19T17:35:47.997Z,2.90
2023-02-19T17:37:53.528Z,2.65
2023-02-19T17:39:56.904Z,2.75
2023-02-19T17:42:00.293Z,2.50
2023-02-19T17:44:03.624Z,2.65
2023-02-19T17:46:07.242Z,2.70
2023-02-19T17:48:13.306Z,2.22
2023-02-19T17:50:19.555Z,2.83
2023-02-19T17:52:22.918Z,3.08
2023-02-19T17:54:27.577Z,2.38
2023-02-19T17:56:30.854Z,2.47
2023-02-19T17:58:34.243Z,2.67
2023-02-19T18:00:37.661Z,2.42
2023-02-19T18:02:40.984Z,1.85
2023-02-19T18:04:44.318Z,2.40
2023-02-19T18:06:48.173Z,2.85
2023-02-19T18:08:52.850Z,2.95
2023-02-19T18:10:57.556Z,2.30
2023-02-19T18:13:00.818Z,2.22
2023-02-19T18:15:04.481Z,2.55
2023-02-19T18:17:07.769Z,2.00
2023-02-19T18:19:11.025Z,2.03
2023-02-19T18:21:14.859Z,2.08
2023-02-19T18:23:20.552Z,1.60
2023-02-19T18:25:24.528Z,2.13
2023-02-19T18:27:29.189Z,1.90
2023-02-19T18:29:34.999Z,1.90
2023-02-19T18:31:38.487Z,1.60
2023-02-19T18:33:41.780Z,1.70
2023-02-19T18:35:47.423Z,1.50
2023-02-19T18:37:52.792Z,2.28
2023-02-19T18:39:56.136Z,2.05
2023-02-19T18:42:00.706Z,2.13
2023-02-19T18:44:05.728Z,2.53
2023-02-19T18:46:09.659Z,2.00
2023-02-19T18:48:13.442Z,2.08
2023-02-19T18:50:17.169Z,2.05
2023-02-19T18:52:24.049Z,1.90
2023-02-19T18:54:27.500Z,2.20
2023-02-19T18:56:31.283Z,2.38
2023-02-19T18:58:34.663Z,2.00
2023-02-19T19:00:39.613Z,2.17
2023-02-19T19:02:49.445Z,2.42
2023-02-19T19:04:56.156Z,2.25
2023-02-19T19:06:59.747Z,2.03
2023-02-19T19:09:03.274Z,1.98
2023-02-19T19:11:06.764Z,2.13
2023-02-19T19:13:10.226Z,2.28
2023-02-19T19:15:13.719Z,2.50
2023-02-19T19:17:18.888Z,2.30
2023-02-19T19:19:22.395Z,2.00
2023-02-19T19:21:25.688Z,2.17
2023-02-19T19:23:29.017Z,2.10
2023-02-19T19:25:32.313Z,2.00
2023-02-19T19:27:35.628Z,2.15
2023-02-19T19:29:39.092Z,2.35
2023-02-19T19:31:43.101Z,2.05
2023-02-19T19:33:48.750Z,2.10
2023-02-19T19:35:52.088Z,2.45
2023-02-19T19:37:55.487Z,2.47
2023-02-19T19:39:58.804Z,2.40
2023-02-19T19:42:02.080Z,2.35
2023-02-19T19:44:06.802Z,2.50
2023-02-19T19:46:10.581Z,2.45
2023-02-19T19:48:13.996Z,2.60
2023-02-19T19:50:19.383Z,2.47
2023-02-19T19:52:22.761Z,2.13
2023-02-19T19:54:26.007Z,2.40
2023-02-19T19:56:29.279Z,2.15
2023-02-19T19:58:34.197Z,1.85
2023-02-19T20:00:37.657Z,2.70
2023-02-19T20:02:41.165Z,2.30
2023-02-19T20:04:45.366Z,2.40
2023-02-19T20:06:50.507Z,2.38
2023-02-19T20:08:54.177Z,2.40
2023-02-19T20:11:00.320Z,2.40
2023-02-19T20:13:04.341Z,2.47
2023-02-19T20:15:08.749Z,2.22
2023-02-19T20:17:12.013Z,2.15
2023-02-19T20:19:15.808Z,2.08
2023-02-19T20:21:19.343Z,2.53
2023-02-19T20:23:24.803Z,2.83
2023-02-19T20:25:29.013Z,2.30
2023-02-19T20:27:33.092Z,2.83
2023-02-19T20:29:37.079Z,2.40
2023-02-19T20:31:41.391Z,2.85
2023-02-19T20:33:45.019Z,2.47
2023-02-19T20:35:48.293Z,2.67
2023-02-19T20:37:52.433Z,2.50
2023-02-19T20:39:57.971Z,2.15
2023-02-19T20:42:01.667Z,1.95
2023-02-19T20:44:05.416Z,2.50
2023-02-19T20:46:10.261Z,2.50
2023-02-19T20:48:17.549Z,2.67
2023-02-19T20:50:23.386Z,2.40
2023-02-19T20:52:27.403Z,2.38
2023-02-19T20:54:32.737Z,2.47
2023-02-19T20:56:38.012Z,2.17
2023-02-19T20:58:43.191Z,2.20
2023-02-19T21:00:46.658Z,2.25
2023-02-19T21:02:50.112Z,2.28
2023-02-19T21:04:53.508Z,1.98
2023-02-19T21:06:57.008Z,1.98
2023-02-19T21:09:00.529Z,1.77
2023-02-19T21:11:03.784Z,2.03
2023-02-19T21:13:08.441Z,1.90
2023-02-19T21:15:11.733Z,1.90
2023-02-19T21:17:15.322Z,1.73
2023-02-19T21:19:18.493Z,2.50
2023-02-19T21:21:25.193Z,1.98
2023-02-19T21:23:28.443Z,1.95
2023-02-19T21:25:33.226Z,1.70
2023-02-19T21:27:36.575Z,1.60
2023-02-19T21:29:41.166Z,1.70
2023-02-19T21:31:46.051Z,2.00
2023-02-19T21:33:49.298Z,2.30
2023-02-19T21:35:52.505Z,1.50
2023-02-19T21:37:55.739Z,1.92
2023-02-19T21:40:00.502Z,1.85
2023-02-19T21:42:03.897Z,1.85
2023-02-19T21:44:07.339Z,1.30
2023-02-19T21:46:19.147Z,2.28
2023-02-19T21:48:22.342Z,2.55
2023-02-19T21:50:25.505Z,1.70
2023-02-19T21:52:28.932Z,1.80
2023-02-19T21:54:32.223Z,2.20
2023-02-19T21:56:36.853Z,1.88
2023-02-19T21:58:40.204Z,1.75
2023-02-19T22:00:43.540Z,1.40
2023-02-19T22:02:48.284Z,1.70
2023-02-19T22:04:55.020Z,1.83
2023-02-19T22:06:58.506Z,1.88
2023-02-19T22:09:02.489Z,1.80
2023-02-19T22:11:06.153Z,2.13
2023-02-19T22:13:09.845Z,1.70
2023-02-19T22:15:13.213Z,1.50
2023-02-19T22:17:16.709Z,1.75
2023-02-19T22:19:21.332Z,2.00
2023-02-19T22:21:26.931Z,1.77
2023-02-19T22:23:30.110Z,1.70
2023-02-19T22:25:33.641Z,1.67
2023-02-19T22:27:36.900Z,1.90
2023-02-19T22:29:40.350Z,1.90
2023-02-19T22:31:44.200Z,2.05
2023-02-19T22:33:47.768Z,2.25
2023-02-19T22:35:52.369Z,2.10
2023-02-19T22:37:55.732Z,2.22
2023-02-19T22:39:58.909Z,2.60
2023-02-19T22:42:02.380Z,2.13
2023-02-19T22:44:06.132Z,1.60
2023-02-19T22:46:13.583Z,1.90
2023-02-19T22:48:29.608Z,2.00
2023-02-19T22:50:33.394Z,2.10
2023-02-19T22:52:38.399Z,1.48
2023-02-19T22:54:41.722Z,1.85
2023-02-19T22:56:45.109Z,2.00
2023-02-19T22:58:48.295Z,2.03
2023-02-19T23:00:51.763Z,1.80
2023-02-19T23:02:54.990Z,1.83
2023-02-19T23:04:58.359Z,1.85
2023-02-19T23:07:01.644Z,2.20
2023-02-19T23:09:10.604Z,1.95
2023-02-19T23:11:14.868Z,2.25
2023-02-19T23:13:18.175Z,1.77
2023-02-19T23:15:21.455Z,1.95
2023-02-19T23:17:24.931Z,1.65
2023-02-19T23:19:28.609Z,2.13
2023-02-19T23:21:32.722Z,1.95
2023-02-19T23:23:35.923Z,2.55
2023-02-19T23:25:40.480Z,1.75
2023-02-19T23:27:43.701Z,1.92
2023-02-19T23:29:47.239Z,2.03
2023-02-19T23:31:50.794Z,1.95
2023-02-19T23:33:54.379Z,2.25
2023-02-19T23:35:57.590Z,1.85
2023-02-19T23:38:01.472Z,2.00
2023-02-19T23:40:05.276Z,1.58
2023-02-19T23:42:15.662Z,1.98
2023-02-19T23:44:19.433Z,1.73
2023-02-19T23:46:22.698Z,2.33
2023-02-19T23:48:26.094Z,2.13
2023-02-19T23:50:29.300Z,2.05
2023-02-19T23:52:32.541Z,1.80
2023-02-19T23:54:35.972Z,2.05
2023-02-19T23:56:39.337Z,2.20
2023-02-19T23:58:44.086Z,2.20
